Flight Track Log - Related Links

Times and Time Zones

All times are in EDT time to prevent confusion due to time zone crossing. See the EGF3479 flight status page for this flight to view local times or setup timezone preferences in your user account.


Time Position Orientation Groundspeed Altitude Reporting Facility
EDT Latitude Longitude Course Direction KTS MPH feet Rate Location/Type
Thu 04:45:45 PM 38.8833 -77.0667 225° Southwest 181 208 1,700  Level Potomac TRACON
Thu 04:46:46 PM 38.9333 -77.1167 322° Northwest 224 258 4,500 2,529 Climbing Potomac TRACON
Thu 04:47:46 PM 38.9833 -77.1667 322° Northwest 252 290 6,800 2,430 Climbing Potomac TRACON
Thu 04:48:47 PM 38.9833 -77.2500 270° West 261 300 9,400 2,083 Climbing Potomac TRACON
Thu 04:49:47 PM 38.9167 -77.3000 210° Southwest 293 337 11,000 1,461 Climbing Potomac TRACON
Thu 04:50:42 PM 38.8333 -77.3333 197° South 337 388 12,200 1,357 Climbing Potomac TRACON
Thu 04:51:00 PM 38.4784 -77.4540 225° Southwest  Level FlightAware Approximate
Thu 04:51:42 PM 38.7500 -77.3833 205° Southwest 343 395 13,600  Level Potomac TRACON
Thu 04:52:43 PM 38.6667 -77.4333 205° Southwest 358 412 14,800 1,141 Climbing Potomac TRACON
Thu 04:54:04 PM 38.5439 -77.4922 201° Southwest 373 429 16,300 1,141 Climbing Washington Center
Thu 04:55:05 PM 38.4494 -77.5403 202° Southwest 378 435 17,500 942 Climbing Washington Center
Thu 04:56:05 PM 38.3586 -77.5989 207° Southwest 378 435 18,200 950 Climbing Washington Center
Thu 04:57:05 PM 38.2739 -77.6758 215° Southwest 372 428 19,400 915 Climbing Washington Center
Thu 04:58:03 PM 38.1872 -77.7500 214° Southwest 377 434 20,000 303 Climbing Washington Center
Thu 04:59:04 PM 38.0961 -77.8292 214° Southwest 383 441 20,000  Level Washington Center
Thu 05:00:04 PM 38.0031 -77.9028 212° Southwest 390 449 20,000  Level Washington Center
Thu 05:01:03 PM 37.9139 -77.9792 214° Southwest 395 455 20,000  Level Washington Center
Thu 05:02:05 PM 37.8206 -78.0578 214° Southwest 400 460 20,000  Level Washington Center
Thu 05:03:03 PM 37.7292 -78.1361 214° Southwest 405 466 20,000 -508 Level Washington Center
Thu 05:04:03 PM 37.6314 -78.2219 215° Southwest 400 460 19,000 -992 Descending Washington Center
Thu 05:05:04 PM 37.5400 -78.3000 214° Southwest 400 460 18,000 -738 Descending Washington Center
Thu 05:06:05 PM 37.4506 -78.3753 214° Southwest 400 460 17,500 -787 Descending Washington Center
Thu 05:07:06 PM 37.3719 -78.4378 212° Southwest 395 455 16,400 -763 Descending Washington Center
Thu 05:08:03 PM 37.2847 -78.5103 213° Southwest 390 449 16,000 -203 Descending Washington Center
Thu 05:09:04 PM 37.1994 -78.5825 214° Southwest 379 436 16,000  Level Washington Center
Thu 05:10:05 PM 37.1100 -78.6572 214° Southwest 379 436 16,000  Level Washington Center
Thu 05:11:04 PM 37.0147 -78.7106 204° Southwest 379 436 16,000  Level Washington Center
Thu 05:12:04 PM 36.9011 -78.7478 195° South 380 437 16,000  Level Washington Center
Thu 05:13:04 PM 36.8000 -78.7875 197° South 380 437 16,000 -645 Level Washington Center
Thu 05:14:05 PM 36.6903 -78.8297 197° South 380 437 14,700 -1,261 Descending Washington Center
Thu 05:15:03 PM 36.6081 -78.8600 196° South 385 443 13,500 -1,109 Descending Washington Center
Thu 05:16:04 PM 36.5111 -78.8947 196° South 380 437 12,500 -950 Descending Washington Center
Thu 05:17:03 PM 36.4122 -78.9292 196° South 380 437 11,600 -892 Descending Washington Center
Thu 05:17:18 PM 36.3703 -78.9325 184° South 374 430 11,400 -689 Descending Washington Center
Thu 05:18:04 PM 36.3000 -78.9089 165° South 359 413 10,900 -667 Descending Washington Center
Thu 05:19:06 PM 36.2131 -78.8819 166° South 370 426 10,200 -701 Descending Washington Center
Thu 05:19:21 PM 36.1800 -78.8756 171° South 323 372 10,000 -1,053 Descending Washington Center
Thu 05:20:03 PM 36.1406 -78.8611 164° South 325 374 9,200 -1,700 Descending Washington Center
Thu 05:20:21 PM 36.1011 -78.8542 172° South 270 311 8,300 -1,200 Descending Washington Center
Thu 05:21:03 PM 36.0619 -78.8397 163° South 293 337 8,000 -295 Descending Washington Center
Thu 05:21:22 PM 36.0328 -78.8411 182° South 242 278 8,000  Level Washington Center
Thu 05:22:04 PM 35.9950 -78.8422 181° South 261 300 8,000 -400 Level Washington Center
Thu 05:22:22 PM 35.9656 -78.8514 194° South 231 266 7,600 -1,100 Descending Washington Center
Thu 05:23:04 PM 35.9378 -78.8758 215° Southwest 228 262 6,900 -1,238 Descending Washington Center
Thu 05:23:25 PM 35.9142 -78.9006 220° Southwest 228 262 6,300 -1,463 Descending Washington Center
Thu 05:24:26 PM 35.8689 -78.9575 226° Southwest 228 262 4,900 -1,328 Descending Washington Center
Thu 05:25:27 PM 35.8200 -78.9861 205° Southwest 221 254 3,600 -958 Descending Washington Center
Thu 05:26:25 PM 35.7861 -78.9336 129° Southeast 189 217 3,000 -756 Descending Washington Center
Thu 05:27:26 PM 35.8083 -78.8858 60° Northeast 159 183 2,100 -750 Descending Washington Center
Thu 05:28:33 PM 35.8406 -78.8436 47° Northeast 152 175 1,400 -703 Descending Washington Center
Thu 05:29:34 PM 35.8664 -78.8139 43° Northeast 136 157 600 -787 Descending Washington Center
Thu 05:31:00 PM 35.8667 -78.7833 56° Northeast  Level FlightAware Approximate
Thu 05:38:00 PM 35.8776 -78.7875 56° Northeast  Level Estimated
Thu 05:39:00 PM 35.8776 -78.7875 231° Southwest  Level Estimated

Login

Don't have an account? Register now (free) for customized features, flight alerts, and more!